createdAt,value
2019-03-09T00:02:02.594Z,97998.09
2019-03-09T00:04:31.827Z,97992.70
2019-03-09T00:07:00.515Z,97991.60
2019-03-09T00:09:29.477Z,97985.30
2019-03-09T00:11:58.606Z,97973.34
2019-03-09T00:14:27.594Z,97973.62
2019-03-09T00:16:56.286Z,97962.96
2019-03-09T00:19:24.985Z,97963.72
2019-03-09T00:21:53.732Z,97958.42
2019-03-09T00:24:29.986Z,97954.11
2019-03-09T00:27:29.839Z,97950.27
2019-03-09T00:30:14.892Z,97954.02
2019-03-09T00:32:43.821Z,97939.60
2019-03-09T00:35:12.535Z,97946.84
2019-03-09T00:37:41.467Z,97930.70
2019-03-09T00:40:11.924Z,97925.75
2019-03-09T00:42:42.072Z,97928.63
2019-03-09T00:45:11.215Z,97912.20
2019-03-09T00:47:40.372Z,97900.80
2019-03-09T00:50:09.978Z,97904.64
2019-03-09T00:52:39.647Z,97890.66
2019-03-09T00:55:10.180Z,97891.25
2019-03-09T00:57:39.176Z,97890.39
2019-03-09T01:00:12.196Z,97885.32
2019-03-09T01:02:40.988Z,97881.84
2019-03-09T01:05:09.882Z,97879.45
2019-03-09T01:07:38.591Z,97878.52
2019-03-09T01:10:09.813Z,97882.98
2019-03-09T01:12:39.485Z,97875.20
2019-03-09T01:15:08.603Z,97860.56
2019-03-09T01:17:37.305Z,97844.53
2019-03-09T01:20:07.228Z,97847.84
2019-03-09T01:22:36.619Z,97833.86
2019-03-09T01:25:05.937Z,97822.50
2019-03-09T01:27:34.642Z,97811.91
2019-03-09T01:30:04.168Z,97807.88
2019-03-09T01:32:33.117Z,97799.80
2019-03-09T01:35:01.824Z,97793.27
2019-03-09T01:37:30.760Z,97792.94
2019-03-09T01:39:59.773Z,97782.59
2019-03-09T01:42:28.464Z,97773.70
2019-03-09T01:44:57.149Z,97757.61
2019-03-09T01:47:25.855Z,97745.89
2019-03-09T01:49:54.612Z,97742.86
2019-03-09T01:52:23.535Z,97736.70
2019-03-09T01:54:52.270Z,97733.67
2019-03-09T01:57:21.236Z,97733.90
2019-03-09T01:59:50.662Z,97728.47
2019-03-09T02:02:19.370Z,97724.64
2019-03-09T02:04:48.061Z,97719.33
2019-03-09T02:07:17.080Z,97722.98
2019-03-09T02:09:45.845Z,97716.30
2019-03-09T02:12:15.058Z,97715.34
2019-03-09T02:14:43.743Z,97706.25
2019-03-09T02:17:12.708Z,97706.14
2019-03-09T02:19:41.638Z,97701.03
2019-03-09T02:22:10.400Z,97689.75
2019-03-09T02:24:39.347Z,97688.39
2019-03-09T02:27:08.306Z,97678.13
2019-03-09T02:29:37.717Z,97665.91
2019-03-09T02:32:06.428Z,97660.95
2019-03-09T02:34:35.118Z,97658.61
2019-03-09T02:37:04.163Z,97654.22
2019-03-09T02:39:41.446Z,97645.96
2019-03-09T02:42:10.199Z,97653.95
2019-03-09T02:44:38.893Z,97643.94
2019-03-09T02:47:07.820Z,97642.06
2019-03-09T02:49:36.756Z,97645.73
2019-03-09T02:52:05.524Z,97650.19
2019-03-09T02:54:34.462Z,97634.98
2019-03-09T02:57:03.424Z,97622.87
2019-03-09T02:59:32.369Z,97627.32
2019-03-09T03:02:21.187Z,97623.09
2019-03-09T03:04:50.132Z,97596.20
2019-03-09T03:07:18.844Z,97596.57
2019-03-09T03:09:47.599Z,97598.02
2019-03-09T03:12:16.283Z,97596.42
2019-03-09T03:14:45.555Z,97586.43
2019-03-09T03:17:14.249Z,97582.09
2019-03-09T03:19:42.926Z,97585.67
2019-03-09T03:22:11.846Z,97587.38
2019-03-09T03:24:41.044Z,97580.35
2019-03-09T03:27:09.736Z,97586.88
2019-03-09T03:29:38.424Z,97565.16
2019-03-09T03:32:07.429Z,97566.46
2019-03-09T03:34:36.131Z,97556.84
2019-03-09T03:37:04.825Z,97578.35
2019-03-09T03:39:33.766Z,97517.99
2019-03-09T03:42:05.415Z,97574.55
2019-03-09T03:44:44.552Z,97559.67
2019-03-09T03:47:14.855Z,97580.26
2019-03-09T03:49:43.621Z,97561.86
2019-03-09T03:52:13.486Z,97563.80
2019-03-09T03:54:42.376Z,97549.09
2019-03-09T03:57:11.139Z,97557.09
2019-03-09T03:59:39.807Z,97548.50
2019-03-09T04:02:08.827Z,97540.57
2019-03-09T04:04:37.564Z,97534.39
2019-03-09T04:07:06.675Z,97542.27
2019-03-09T04:09:35.430Z,97546.11
2019-03-09T04:12:04.477Z,97533.03
2019-03-09T04:14:33.753Z,97529.51
2019-03-09T04:17:02.846Z,97529.45
2019-03-09T04:19:31.777Z,97521.80
2019-03-09T04:22:00.697Z,97529.51
2019-03-09T04:24:29.910Z,97517.61
2019-03-09T04:26:58.842Z,97524.95
2019-03-09T04:29:27.568Z,97496.13
2019-03-09T04:31:56.265Z,97524.63
2019-03-09T04:34:25.026Z,97523.79
2019-03-09T04:37:00.370Z,97515.87
2019-03-09T04:39:29.382Z,97514.52
2019-03-09T04:41:58.399Z,97508.14
2019-03-09T04:44:27.430Z,97504.56
2019-03-09T04:46:56.114Z,97511.09
2019-03-09T04:49:24.795Z,97504.80
2019-03-09T04:51:53.511Z,97510.69
2019-03-09T04:54:22.707Z,97519.93
2019-03-09T04:56:51.670Z,97523.45
2019-03-09T04:59:20.601Z,97519.00
2019-03-09T05:01:49.588Z,97518.13
2019-03-09T05:04:49.787Z,97533.22
2019-03-09T05:07:22.592Z,97531.74
2019-03-09T05:10:05.763Z,97536.68
2019-03-09T05:12:34.941Z,97514.03
2019-03-09T05:15:03.830Z,97508.05
2019-03-09T05:17:32.524Z,97515.09
2019-03-09T05:20:01.266Z,97509.89
2019-03-09T05:22:29.964Z,97520.70
2019-03-09T05:24:58.629Z,97518.80
2019-03-09T05:27:27.587Z,97526.33
2019-03-09T05:29:56.271Z,97520.52
2019-03-09T05:32:24.997Z,97519.17
2019-03-09T05:34:53.686Z,97531.28
2019-03-09T05:37:22.375Z,97532.03
2019-03-09T05:39:51.306Z,97544.27
2019-03-09T05:42:20.090Z,97546.52
2019-03-09T05:44:48.777Z,97549.47
2019-03-09T05:47:17.973Z,97552.94
2019-03-09T05:49:46.652Z,97558.86
2019-03-09T05:52:31.991Z,97572.93
2019-03-09T05:55:04.834Z,97566.27
2019-03-09T05:57:33.593Z,97577.95
2019-03-09T06:00:02.553Z,97588.50
2019-03-09T06:02:31.508Z,97592.39
2019-03-09T06:05:00.310Z,97623.86
2019-03-09T06:07:29.196Z,97619.75
2019-03-09T06:09:57.973Z,97616.20
2019-03-09T06:12:27.213Z,97607.73
2019-03-09T06:14:56.145Z,97627.30
2019-03-09T06:17:24.933Z,97610.00
2019-03-09T06:19:53.945Z,97617.92
2019-03-09T06:22:22.948Z,97616.37
2019-03-09T06:24:51.645Z,97602.46
2019-03-09T06:27:20.721Z,97612.23
2019-03-09T06:29:49.633Z,97605.13
2019-03-09T06:32:54.160Z,97621.73
2019-03-09T06:35:23.002Z,97625.09
2019-03-09T06:37:59.882Z,97616.13
2019-03-09T06:40:28.633Z,97621.63
2019-03-09T06:42:57.585Z,97636.09
2019-03-09T06:45:26.271Z,97641.53
2019-03-09T06:47:55.285Z,97637.68
2019-03-09T06:50:23.978Z,97657.03
2019-03-09T06:52:52.689Z,97653.19
2019-03-09T06:55:21.383Z,97660.92
2019-03-09T06:57:50.338Z,97677.00
2019-03-09T07:00:30.907Z,97674.22
2019-03-09T07:02:59.765Z,97674.48
2019-03-09T07:05:28.660Z,97668.84
2019-03-09T07:07:57.594Z,97685.40
2019-03-09T07:10:26.552Z,97691.65
2019-03-09T07:12:55.536Z,97688.61
2019-03-09T07:15:32.369Z,97685.89
2019-03-09T07:18:12.403Z,97690.66
2019-03-09T07:20:41.808Z,97708.82
2019-03-09T07:23:11.018Z,97713.97
2019-03-09T07:25:39.697Z,97699.50
2019-03-09T07:28:10.247Z,97718.55
2019-03-09T07:30:39.188Z,97717.44
2019-03-09T07:33:08.207Z,97731.27
2019-03-09T07:35:37.137Z,97719.30
2019-03-09T07:38:06.021Z,97735.30
2019-03-09T07:40:34.958Z,97724.99
2019-03-09T07:43:04.377Z,97722.37
2019-03-09T07:45:33.240Z,97737.77
2019-03-09T07:48:01.933Z,97748.84
2019-03-09T07:50:30.940Z,97739.06
2019-03-09T07:52:59.714Z,97747.75
2019-03-09T07:55:28.704Z,97738.09
2019-03-09T07:58:04.941Z,97738.32
2019-03-09T08:00:34.142Z,97745.13
2019-03-09T08:03:03.248Z,97751.31
2019-03-09T08:05:32.038Z,97733.81
2019-03-09T08:08:00.738Z,97736.47
2019-03-09T08:10:29.597Z,97744.03
2019-03-09T08:12:58.431Z,97752.81
2019-03-09T08:15:27.313Z,97742.53
2019-03-09T08:17:56.033Z,97738.45
2019-03-09T08:20:24.912Z,97760.88
2019-03-09T08:22:54.004Z,97748.01
2019-03-09T08:25:22.798Z,97757.38
2019-03-09T08:27:51.841Z,97765.22
2019-03-09T08:30:21.909Z,97749.92
2019-03-09T08:32:50.795Z,97753.72
2019-03-09T08:35:20.317Z,97772.32
2019-03-09T08:37:50.008Z,97772.45
2019-03-09T08:40:18.896Z,97766.45
2019-03-09T08:42:47.676Z,97772.02
2019-03-09T08:45:17.455Z,97771.57
2019-03-09T08:47:52.288Z,97782.95
2019-03-09T08:50:19.223Z,97777.50
2019-03-09T08:52:48.247Z,97782.33
2019-03-09T08:55:18.175Z,97773.54
2019-03-09T08:57:47.310Z,97773.89
2019-03-09T09:00:18.572Z,97776.99
2019-03-09T09:02:47.401Z,97790.03
2019-03-09T09:05:16.441Z,97788.44
2019-03-09T09:07:45.731Z,97799.50
2019-03-09T09:10:14.692Z,97801.52
2019-03-09T09:12:46.111Z,97809.43
2019-03-09T09:15:17.201Z,97799.09
2019-03-09T09:17:46.290Z,97804.59
2019-03-09T09:20:16.539Z,97803.83
2019-03-09T09:22:45.749Z,97809.00
2019-03-09T09:25:14.864Z,97815.27
2019-03-09T09:27:43.588Z,97809.30
2019-03-09T09:30:15.905Z,97817.12
2019-03-09T09:32:44.624Z,97810.38
2019-03-09T09:35:13.903Z,97807.17
2019-03-09T09:37:42.875Z,97813.25
2019-03-09T09:40:13.686Z,97815.64
2019-03-09T09:42:42.849Z,97821.42
2019-03-09T09:45:12.118Z,97807.80
2019-03-09T09:47:42.581Z,97820.55
2019-03-09T09:50:11.563Z,97813.73
2019-03-09T09:52:40.264Z,97807.03
2019-03-09T09:55:11.233Z,97805.34
2019-03-09T09:57:40.311Z,97796.00
2019-03-09T10:00:17.088Z,97800.54
2019-03-09T10:02:45.820Z,97800.54
2019-03-09T10:05:14.678Z,97790.00
2019-03-09T10:07:43.538Z,97792.66
2019-03-09T10:10:13.862Z,97806.95
2019-03-09T10:12:42.870Z,97811.05
2019-03-09T10:15:14.509Z,97790.59
2019-03-09T10:17:43.482Z,97787.73
2019-03-09T10:20:12.479Z,97795.76
2019-03-09T10:22:41.449Z,97789.83
2019-03-09T10:25:10.800Z,97793.03
2019-03-09T10:27:40.080Z,97796.61
2019-03-09T10:30:10.618Z,97784.41
2019-03-09T10:32:39.569Z,97790.55
2019-03-09T10:35:08.440Z,97776.63
2019-03-09T10:37:37.152Z,97775.03
2019-03-09T10:40:05.965Z,97777.78
2019-03-09T10:42:35.082Z,97769.75
2019-03-09T10:45:04.149Z,97781.14
2019-03-09T10:47:32.881Z,97781.78
2019-03-09T10:50:02.093Z,97794.14
2019-03-09T10:52:31.068Z,97785.55
2019-03-09T10:55:00.449Z,97801.05
2019-03-09T10:57:29.185Z,97784.36
2019-03-09T10:59:58.274Z,97798.00
2019-03-09T11:02:27.302Z,97794.64
2019-03-09T11:04:56.271Z,97795.28
2019-03-09T11:07:25.293Z,97781.30
2019-03-09T11:09:53.986Z,97790.30
2019-03-09T11:12:22.995Z,97785.31
2019-03-09T11:14:51.675Z,97778.23
2019-03-09T11:17:20.966Z,97776.78
2019-03-09T11:19:49.750Z,97769.23
2019-03-09T11:22:18.479Z,97775.34
2019-03-09T11:24:47.414Z,97786.73
2019-03-09T11:27:16.215Z,97774.69
2019-03-09T11:29:45.114Z,97774.05
2019-03-09T11:32:13.860Z,97776.36
2019-03-09T11:34:42.824Z,97782.63
2019-03-09T11:37:11.535Z,97771.02
2019-03-09T11:39:40.242Z,97778.81
2019-03-09T11:42:09.636Z,97775.28
2019-03-09T11:44:40.668Z,97755.41
2019-03-09T11:47:09.405Z,97755.45
2019-03-09T11:49:38.088Z,97754.59
2019-03-09T11:52:07.095Z,97768.90
2019-03-09T11:54:36.223Z,97770.22
2019-03-09T11:57:05.048Z,97748.10
2019-03-09T11:59:33.780Z,97744.94
2019-03-09T12:02:02.563Z,97748.11
2019-03-09T12:04:31.263Z,97731.55
2019-03-09T12:07:00.322Z,97725.05
2019-03-09T12:09:29.102Z,97742.95
2019-03-09T12:12:02.964Z,97730.13
2019-03-09T12:14:31.839Z,97717.22
2019-03-09T12:17:00.837Z,97703.00
2019-03-09T12:19:29.768Z,97706.63
2019-03-09T12:21:58.534Z,97702.78
2019-03-09T12:24:27.590Z,97703.79
2019-03-09T12:26:56.611Z,97684.27
2019-03-09T12:29:25.844Z,97678.50
2019-03-09T12:31:54.564Z,97670.04
2019-03-09T12:34:23.353Z,97670.95
2019-03-09T12:36:52.101Z,97657.57
2019-03-09T12:39:21.114Z,97660.37
2019-03-09T12:41:52.359Z,97645.56
2019-03-09T12:44:20.672Z,97639.42
2019-03-09T12:46:49.736Z,97646.97
2019-03-09T12:49:18.795Z,97636.89
2019-03-09T12:51:47.759Z,97629.45
2019-03-09T12:54:18.198Z,97629.45
2019-03-09T12:56:47.184Z,97613.48
2019-03-09T12:59:16.108Z,97620.70
2019-03-09T13:01:45.065Z,97604.81
2019-03-09T13:04:14.100Z,97599.57
2019-03-09T13:06:43.631Z,97578.67
2019-03-09T13:09:12.692Z,97588.47
2019-03-09T13:11:41.669Z,97586.42
2019-03-09T13:14:10.682Z,97588.55
2019-03-09T13:16:39.654Z,97567.69
2019-03-09T13:19:08.610Z,97567.45
2019-03-09T13:21:38.117Z,97565.84
2019-03-09T13:24:06.833Z,97574.27
2019-03-09T13:26:35.624Z,97574.27
2019-03-09T13:29:04.916Z,97550.50
2019-03-09T13:31:33.883Z,97550.51
2019-03-09T13:34:02.758Z,97542.27
2019-03-09T13:36:31.786Z,97541.12
2019-03-09T13:39:00.588Z,97543.16
2019-03-09T13:41:29.306Z,97536.85
2019-03-09T13:43:58.030Z,97512.91
2019-03-09T13:46:26.837Z,97536.06
2019-03-09T13:48:56.098Z,97537.28
2019-03-09T13:51:24.951Z,97514.11
2019-03-09T13:53:53.695Z,97512.62
2019-03-09T13:56:22.606Z,97492.23
2019-03-09T13:58:51.578Z,97493.69
2019-03-09T14:01:20.591Z,97492.55
2019-03-09T14:03:49.307Z,97469.38
2019-03-09T14:06:18.044Z,97487.25
2019-03-09T14:08:47.303Z,97483.78
2019-03-09T14:11:16.034Z,97469.95
2019-03-09T14:13:44.745Z,97454.80
2019-03-09T14:16:13.522Z,97447.54
2019-03-09T14:18:42.315Z,97446.47
2019-03-09T14:21:11.048Z,97442.59
2019-03-09T14:23:39.773Z,97416.77
2019-03-09T14:26:08.467Z,97394.70
2019-03-09T14:28:38.159Z,97399.67
2019-03-09T14:31:08.433Z,97389.04
2019-03-09T14:33:38.761Z,97382.92
2019-03-09T14:36:07.805Z,97367.86
2019-03-09T14:38:37.130Z,97357.59
2019-03-09T14:41:06.284Z,97351.27
2019-03-09T14:43:35.495Z,97359.32
2019-03-09T14:46:04.668Z,97369.02
2019-03-09T14:48:35.229Z,97361.84
2019-03-09T14:51:04.624Z,97382.27
2019-03-09T14:53:33.459Z,97404.11
2019-03-09T14:56:02.432Z,97395.00
2019-03-09T14:58:32.196Z,97414.72
2019-03-09T15:01:00.971Z,97401.05
2019-03-09T15:03:29.677Z,97406.62
2019-03-09T15:05:58.409Z,97435.53
2019-03-09T15:08:27.838Z,97426.30
2019-03-09T15:10:57.344Z,97439.56
2019-03-09T15:13:26.102Z,97422.14
2019-03-09T15:15:55.538Z,97398.77
2019-03-09T15:18:24.301Z,97393.70
2019-03-09T15:20:55.039Z,97381.63
2019-03-09T15:23:24.410Z,97382.91
2019-03-09T15:25:53.389Z,97393.48
2019-03-09T15:28:22.276Z,97379.07
2019-03-09T15:30:51.082Z,97384.10
2019-03-09T15:33:21.764Z,97384.27
2019-03-09T15:35:50.771Z,97378.75
2019-03-09T15:38:19.548Z,97377.40
2019-03-09T15:40:48.541Z,97381.70
2019-03-09T15:43:17.318Z,97377.06
2019-03-09T15:45:46.042Z,97373.15
2019-03-09T15:48:14.997Z,97367.20
2019-03-09T15:50:43.738Z,97346.86
2019-03-09T15:53:12.571Z,97335.41
2019-03-09T15:55:41.300Z,97326.99
2019-03-09T15:58:10.339Z,97318.66
2019-03-09T16:00:39.139Z,97322.69
2019-03-09T16:03:15.857Z,97323.08
2019-03-09T16:05:44.890Z,97316.77
2019-03-09T16:08:13.601Z,97319.02
2019-03-09T16:10:42.301Z,97307.47
2019-03-09T16:13:13.431Z,97311.80
2019-03-09T16:15:42.100Z,97315.33
2019-03-09T16:18:10.846Z,97303.33
2019-03-09T16:20:39.612Z,97319.74
2019-03-09T16:23:08.556Z,97384.83
2019-03-09T16:25:37.310Z,97395.05
2019-03-09T16:28:06.397Z,97398.06
2019-03-09T16:30:35.415Z,97412.52
2019-03-09T16:33:04.437Z,97425.64
2019-03-09T16:35:34.031Z,97426.45
2019-03-09T16:38:02.716Z,97449.41
2019-03-09T16:40:40.105Z,97471.75
2019-03-09T16:43:02.188Z,97503.70
2019-03-09T16:45:30.967Z,97509.36
2019-03-09T16:47:59.965Z,97512.30
2019-03-09T16:50:28.747Z,97485.12
2019-03-09T16:52:57.483Z,97503.47
2019-03-09T16:55:26.473Z,97492.39
2019-03-09T16:57:55.273Z,97489.03
2019-03-09T17:00:24.483Z,97496.58
2019-03-09T17:02:53.273Z,97478.19
2019-03-09T17:05:22.356Z,97497.81
2019-03-09T17:07:51.095Z,97494.23
2019-03-09T17:10:20.008Z,97511.11
2019-03-09T17:12:49.355Z,97516.80
2019-03-09T17:15:18.135Z,97527.28
2019-03-09T17:17:47.079Z,97529.73
2019-03-09T17:20:16.173Z,97538.40
2019-03-09T17:22:45.273Z,97567.53
2019-03-09T17:25:14.610Z,97582.09
2019-03-09T17:27:43.662Z,97585.30
2019-03-09T17:30:14.435Z,97592.09
2019-03-09T17:32:43.326Z,97524.17
2019-03-09T17:35:12.514Z,97609.73
2019-03-09T17:37:41.450Z,97617.17
2019-03-09T17:40:10.697Z,97601.88
2019-03-09T17:42:44.189Z,97614.66
2019-03-09T17:45:15.453Z,97631.13
2019-03-09T17:47:44.487Z,97647.69
2019-03-09T17:50:13.438Z,97639.28
2019-03-09T17:52:42.601Z,97656.33
2019-03-09T17:55:11.510Z,97672.77
2019-03-09T17:57:40.692Z,97698.41
2019-03-09T18:00:13.051Z,97711.81
2019-03-09T18:02:42.087Z,97730.67
2019-03-09T18:05:13.843Z,97728.45
2019-03-09T18:07:42.628Z,97758.86
2019-03-09T18:10:14.716Z,97761.16
2019-03-09T18:12:42.622Z,97790.88
2019-03-09T18:15:11.426Z,97777.49
2019-03-09T18:17:40.378Z,97796.13
2019-03-09T18:20:09.405Z,97787.75
2019-03-09T18:22:38.115Z,97798.56
2019-03-09T18:25:07.409Z,97820.66
2019-03-09T18:27:36.504Z,97824.05
2019-03-09T18:30:11.588Z,97846.45
2019-03-09T18:32:41.229Z,97849.75
2019-03-09T18:35:10.132Z,97868.70
2019-03-09T18:37:39.134Z,97875.98
2019-03-09T18:40:08.464Z,97876.22
2019-03-09T18:42:37.661Z,97898.63
2019-03-09T18:45:07.792Z,97913.83
2019-03-09T18:47:36.747Z,97900.95
2019-03-09T18:50:05.823Z,97912.54
2019-03-09T18:52:34.626Z,97927.07
2019-03-09T18:55:03.500Z,97931.09
2019-03-09T18:57:32.339Z,97927.74
2019-03-09T19:00:02.507Z,97943.66
2019-03-09T19:02:31.264Z,97959.45
2019-03-09T19:05:00.331Z,97955.22
2019-03-09T19:07:29.414Z,97970.16
2019-03-09T19:09:58.318Z,97981.79
2019-03-09T19:12:27.495Z,97987.14
2019-03-09T19:14:56.412Z,97989.70
2019-03-09T19:17:30.152Z,98008.67
2019-03-09T19:19:59.701Z,98006.30
2019-03-09T19:22:28.759Z,98022.39
2019-03-09T19:24:57.455Z,98006.61
2019-03-09T19:27:26.232Z,98025.42
2019-03-09T19:29:55.436Z,98021.48
2019-03-09T19:32:24.347Z,98030.27
2019-03-09T19:34:53.061Z,98043.09
2019-03-09T19:37:21.777Z,98051.87
2019-03-09T19:39:51.236Z,98057.36
2019-03-09T19:42:19.911Z,98050.30
2019-03-09T19:44:48.624Z,98059.34
2019-03-09T19:47:17.893Z,98064.83
2019-03-09T19:49:46.846Z,98065.40
2019-03-09T19:52:16.079Z,98071.16
2019-03-09T19:54:45.048Z,98058.34
2019-03-09T19:57:14.063Z,98065.67
2019-03-09T19:59:42.812Z,98070.55
2019-03-09T20:02:11.763Z,98077.66
2019-03-09T20:04:40.469Z,98084.52
2019-03-09T20:07:09.230Z,98079.07
2019-03-09T20:09:37.918Z,98086.72
2019-03-09T20:12:06.742Z,98089.75
2019-03-09T20:14:35.671Z,98089.28
2019-03-09T20:17:04.581Z,98083.56
2019-03-09T20:19:33.277Z,98091.11
2019-03-09T20:22:02.200Z,98106.34
2019-03-09T20:24:30.989Z,98109.30
2019-03-09T20:26:59.678Z,98119.06
2019-03-09T20:29:28.606Z,98115.31
2019-03-09T20:31:57.355Z,98115.55
2019-03-09T20:34:26.147Z,98115.80
2019-03-09T20:36:54.822Z,98119.92
2019-03-09T20:39:23.753Z,98117.45
2019-03-09T20:41:52.481Z,98125.61
2019-03-09T20:44:22.537Z,98123.71
2019-03-09T20:46:54.464Z,98142.94
2019-03-09T20:49:23.209Z,98132.64
2019-03-09T20:51:52.093Z,98131.30
2019-03-09T20:54:20.882Z,98129.11
2019-03-09T20:56:49.835Z,98132.05
2019-03-09T20:59:18.537Z,98135.87
2019-03-09T21:01:47.213Z,98142.90
2019-03-09T21:04:15.925Z,98137.25
2019-03-09T21:06:44.615Z,98140.50
2019-03-09T21:09:16.327Z,98144.06
2019-03-09T21:11:45.759Z,98145.22
2019-03-09T21:14:14.716Z,98146.26
2019-03-09T21:16:43.680Z,98145.22
2019-03-09T21:19:12.789Z,98149.02
2019-03-09T21:21:41.807Z,98149.58
2019-03-09T21:24:10.785Z,98146.63
2019-03-09T21:26:39.446Z,98142.28
2019-03-09T21:29:08.445Z,98155.27
2019-03-09T21:31:37.807Z,98153.53
2019-03-09T21:34:06.974Z,98164.94
2019-03-09T21:36:35.684Z,98159.81
2019-03-09T21:39:08.468Z,98161.19
2019-03-09T21:41:37.458Z,98169.34
2019-03-09T21:44:06.660Z,98169.63
2019-03-09T21:46:35.740Z,98165.28
2019-03-09T21:49:07.168Z,98167.47
2019-03-09T21:51:36.239Z,98173.69
2019-03-09T21:54:05.093Z,98152.20
2019-03-09T21:56:33.814Z,98159.54
2019-03-09T21:59:02.619Z,98141.14
2019-03-09T22:01:31.868Z,98154.91
2019-03-09T22:04:01.078Z,98162.53
2019-03-09T22:06:29.760Z,98160.61
2019-03-09T22:08:58.740Z,98155.43
2019-03-09T22:11:27.467Z,98148.63
2019-03-09T22:13:56.427Z,98156.17
2019-03-09T22:16:25.363Z,98159.19
2019-03-09T22:18:54.556Z,98161.08
2019-03-09T22:21:23.660Z,98166.20
2019-03-09T22:23:52.631Z,98161.31
2019-03-09T22:26:21.321Z,98161.31
2019-03-09T22:28:50.024Z,98174.78
2019-03-09T22:31:19.223Z,98161.73
2019-03-09T22:33:48.203Z,98166.88
2019-03-09T22:36:16.903Z,98162.80
2019-03-09T22:38:45.829Z,98158.98
2019-03-09T22:41:14.783Z,98181.70
2019-03-09T22:43:45.284Z,98170.30
2019-03-09T22:46:14.232Z,98175.69
2019-03-09T22:48:42.927Z,98188.09
2019-03-09T22:51:11.616Z,98181.69
2019-03-09T22:53:41.401Z,98172.59
2019-03-09T22:56:10.447Z,98172.93
2019-03-09T22:58:39.148Z,98174.48
2019-03-09T23:01:08.477Z,98163.36
2019-03-09T23:03:37.483Z,98157.39
2019-03-09T23:06:06.324Z,98157.16
2019-03-09T23:08:35.007Z,98134.37
2019-03-09T23:11:03.732Z,98134.61
2019-03-09T23:13:32.646Z,98126.42
2019-03-09T23:16:01.708Z,98138.91
2019-03-09T23:18:31.184Z,98130.72
2019-03-09T23:20:59.873Z,98124.13
2019-03-09T23:23:29.353Z,98116.53
2019-03-09T23:25:58.641Z,98129.03
2019-03-09T23:28:27.775Z,98129.55
2019-03-09T23:30:56.463Z,98128.14
2019-03-09T23:33:25.232Z,98121.62
2019-03-09T23:35:53.934Z,98139.48
2019-03-09T23:38:22.622Z,98131.01
2019-03-09T23:40:51.715Z,98135.59
2019-03-09T23:43:20.425Z,98139.91
2019-03-09T23:45:49.455Z,98145.03
2019-03-09T23:48:18.218Z,98136.29
2019-03-09T23:50:46.924Z,98139.48
2019-03-09T23:53:15.749Z,98151.64
2019-03-09T23:55:44.793Z,98135.08
2019-03-09T23:58:13.824Z,98134.55
